sensor_id;sensor_type;location;lat;lon;timestamp;temperature;humidity
33476;DHT22;19814;48.224;11.422;2023-07-13T00:02:06;18.10;99.90
33476;DHT22;19814;48.224;11.422;2023-07-13T00:04:31;18.20;99.90
33476;DHT22;19814;48.224;11.422;2023-07-13T00:06:57;18.20;99.90
33476;DHT22;19814;48.224;11.422;2023-07-13T00:09:23;18.20;99.90
33476;DHT22;19814;48.224;11.422;2023-07-13T00:11:55;18.30;99.90
33476;DHT22;19814;48.224;11.422;2023-07-13T00:14:21;18.30;99.90
33476;DHT22;19814;48.224;11.422;2023-07-13T00:16:46;18.20;99.90
33476;DHT22;19814;48.224;11.422;2023-07-13T00:19:12;18.30;99.90
33476;DHT22;19814;48.224;11.422;2023-07-13T00:21:39;18.20;99.90
33476;DHT22;19814;48.224;11.422;2023-07-13T00:24:07;18.10;99.90
33476;DHT22;19814;48.224;11.422;2023-07-13T00:26:33;18.10;99.90
33476;DHT22;19814;48.224;11.422;2023-07-13T00:28:59;18.00;99.90
33476;DHT22;19814;48.224;11.422;2023-07-13T00:31:24;18.10;99.90
33476;DHT22;19814;48.224;11.422;2023-07-13T00:33:50;18.10;99.90
33476;DHT22;19814;48.224;11.422;2023-07-13T00:36:16;18.20;99.90
33476;DHT22;19814;48.224;11.422;2023-07-13T00:38:42;18.20;99.90
33476;DHT22;19814;48.224;11.422;2023-07-13T00:41:09;18.30;99.90
33476;DHT22;19814;48.224;11.422;2023-07-13T00:43:35;18.30;99.90
33476;DHT22;19814;48.224;11.422;2023-07-13T00:48:48;18.30;99.90
33476;DHT22;19814;48.224;11.422;2023-07-13T00:51:17;18.30;99.90
33476;DHT22;19814;48.224;11.422;2023-07-13T00:53:44;18.30;99.90
33476;DHT22;19814;48.224;11.422;2023-07-13T00:56:10;18.30;99.90
33476;DHT22;19814;48.224;11.422;2023-07-13T00:58:36;18.40;99.90
33476;DHT22;19814;48.224;11.422;2023-07-13T01:01:02;18.40;99.90
33476;DHT22;19814;48.224;11.422;2023-07-13T01:03:27;18.40;99.90
33476;DHT22;19814;48.224;11.422;2023-07-13T01:05:54;18.40;99.90
33476;DHT22;19814;48.224;11.422;2023-07-13T01:08:21;18.40;99.90
33476;DHT22;19814;48.224;11.422;2023-07-13T01:10:54;18.40;99.90
33476;DHT22;19814;48.224;11.422;2023-07-13T01:13:20;18.40;99.90
33476;DHT22;19814;48.224;11.422;2023-07-13T01:15:48;18.40;99.90
33476;DHT22;19814;48.224;11.422;2023-07-13T01:18:21;18.50;99.90
33476;DHT22;19814;48.224;11.422;2023-07-13T01:20:54;18.50;99.90
33476;DHT22;19814;48.224;11.422;2023-07-13T01:23:21;18.60;99.90
33476;DHT22;19814;48.224;11.422;2023-07-13T01:25:46;18.60;99.90
33476;DHT22;19814;48.224;11.422;2023-07-13T01:28:12;18.60;99.90
33476;DHT22;19814;48.224;11.422;2023-07-13T01:30:39;18.50;99.90
33476;DHT22;19814;48.224;11.422;2023-07-13T01:33:07;18.40;99.90
33476;DHT22;19814;48.224;11.422;2023-07-13T01:35:33;18.40;99.90
33476;DHT22;19814;48.224;11.422;2023-07-13T01:37:59;18.30;99.90
33476;DHT22;19814;48.224;11.422;2023-07-13T01:40:27;18.20;99.90
33476;DHT22;19814;48.224;11.422;2023-07-13T01:42:53;18.20;99.90
33476;DHT22;19814;48.224;11.422;2023-07-13T01:45:18;18.20;99.90
33476;DHT22;19814;48.224;11.422;2023-07-13T01:47:44;18.20;99.90
33476;DHT22;19814;48.224;11.422;2023-07-13T01:50:10;18.20;99.90
33476;DHT22;19814;48.224;11.422;2023-07-13T01:52:35;18.20;99.90
33476;DHT22;19814;48.224;11.422;2023-07-13T01:55:01;18.20;99.90
33476;DHT22;19814;48.224;11.422;2023-07-13T01:57:27;18.20;99.90
33476;DHT22;19814;48.224;11.422;2023-07-13T01:59:53;18.30;99.90
33476;DHT22;19814;48.224;11.422;2023-07-13T02:02:18;18.30;99.90
33476;DHT22;19814;48.224;11.422;2023-07-13T02:04:44;18.30;99.90
33476;DHT22;19814;48.224;11.422;2023-07-13T02:07:09;18.30;99.90
33476;DHT22;19814;48.224;11.422;2023-07-13T02:09:35;18.30;99.90
33476;DHT22;19814;48.224;11.422;2023-07-13T02:12:01;18.30;99.90
33476;DHT22;19814;48.224;11.422;2023-07-13T02:14:26;18.40;99.90
33476;DHT22;19814;48.224;11.422;2023-07-13T02:16:52;18.40;99.90
33476;DHT22;19814;48.224;11.422;2023-07-13T02:19:17;18.40;99.90
33476;DHT22;19814;48.224;11.422;2023-07-13T02:21:43;18.40;99.90
33476;DHT22;19814;48.224;11.422;2023-07-13T02:24:08;18.40;99.90
33476;DHT22;19814;48.224;11.422;2023-07-13T02:26:34;18.30;99.90
33476;DHT22;19814;48.224;11.422;2023-07-13T02:29:00;18.30;99.90
33476;DHT22;19814;48.224;11.422;2023-07-13T02:31:26;18.30;99.90
33476;DHT22;19814;48.224;11.422;2023-07-13T02:33:51;18.30;99.90
33476;DHT22;19814;48.224;11.422;2023-07-13T02:36:17;18.30;99.90
33476;DHT22;19814;48.224;11.422;2023-07-13T02:38:44;18.30;99.90
33476;DHT22;19814;48.224;11.422;2023-07-13T02:41:09;18.30;99.90
33476;DHT22;19814;48.224;11.422;2023-07-13T02:43:37;18.30;99.90
33476;DHT22;19814;48.224;11.422;2023-07-13T02:46:02;18.30;99.90
33476;DHT22;19814;48.224;11.422;2023-07-13T02:48:35;18.20;99.90
33476;DHT22;19814;48.224;11.422;2023-07-13T02:51:01;18.10;99.90
33476;DHT22;19814;48.224;11.422;2023-07-13T02:53:26;18.00;99.90
33476;DHT22;19814;48.224;11.422;2023-07-13T02:55:52;18.00;99.90
33476;DHT22;19814;48.224;11.422;2023-07-13T02:58:18;17.90;99.90
33476;DHT22;19814;48.224;11.422;2023-07-13T03:00:45;17.90;99.90
33476;DHT22;19814;48.224;11.422;2023-07-13T03:03:12;17.80;99.90
33476;DHT22;19814;48.224;11.422;2023-07-13T03:05:40;17.90;99.90
33476;DHT22;19814;48.224;11.422;2023-07-13T03:08:05;17.80;99.90
33476;DHT22;19814;48.224;11.422;2023-07-13T03:10:32;17.80;99.90
33476;DHT22;19814;48.224;11.422;2023-07-13T03:12:57;17.80;99.90
33476;DHT22;19814;48.224;11.422;2023-07-13T03:15:23;17.80;99.90
33476;DHT22;19814;48.224;11.422;2023-07-13T03:17:49;17.80;99.90
33476;DHT22;19814;48.224;11.422;2023-07-13T03:20:15;17.80;99.90
33476;DHT22;19814;48.224;11.422;2023-07-13T03:22:40;17.70;99.90
33476;DHT22;19814;48.224;11.422;2023-07-13T03:25:07;17.80;99.90
33476;DHT22;19814;48.224;11.422;2023-07-13T03:27:33;17.80;99.90
33476;DHT22;19814;48.224;11.422;2023-07-13T03:29:58;17.80;99.90
33476;DHT22;19814;48.224;11.422;2023-07-13T03:32:24;17.80;99.90
33476;DHT22;19814;48.224;11.422;2023-07-13T03:34:49;17.80;99.90
33476;DHT22;19814;48.224;11.422;2023-07-13T03:37:15;17.80;99.90
33476;DHT22;19814;48.224;11.422;2023-07-13T03:39:40;17.80;99.90
33476;DHT22;19814;48.224;11.422;2023-07-13T03:42:06;17.80;99.90
33476;DHT22;19814;48.224;11.422;2023-07-13T03:44:32;17.80;99.90
33476;DHT22;19814;48.224;11.422;2023-07-13T03:46:57;17.80;99.90
33476;DHT22;19814;48.224;11.422;2023-07-13T03:49:23;17.70;99.90
33476;DHT22;19814;48.224;11.422;2023-07-13T03:51:48;17.60;99.90
33476;DHT22;19814;48.224;11.422;2023-07-13T03:54:14;17.60;99.90
33476;DHT22;19814;48.224;11.422;2023-07-13T03:56:40;17.60;99.90
33476;DHT22;19814;48.224;11.422;2023-07-13T03:59:05;17.60;99.90
33476;DHT22;19814;48.224;11.422;2023-07-13T04:01:31;17.70;99.90
33476;DHT22;19814;48.224;11.422;2023-07-13T04:03:56;17.70;99.90
33476;DHT22;19814;48.224;11.422;2023-07-13T04:06:26;17.70;99.90
33476;DHT22;19814;48.224;11.422;2023-07-13T04:08:54;17.70;99.90
33476;DHT22;19814;48.224;11.422;2023-07-13T04:11:22;17.60;99.90
33476;DHT22;19814;48.224;11.422;2023-07-13T04:13:48;17.60;99.90
33476;DHT22;19814;48.224;11.422;2023-07-13T04:16:15;17.50;99.90
33476;DHT22;19814;48.224;11.422;2023-07-13T04:18:40;17.50;99.90
33476;DHT22;19814;48.224;11.422;2023-07-13T04:21:07;17.50;99.90
33476;DHT22;19814;48.224;11.422;2023-07-13T04:23:33;17.60;99.90
33476;DHT22;19814;48.224;11.422;2023-07-13T04:25:58;17.50;99.90
33476;DHT22;19814;48.224;11.422;2023-07-13T04:28:25;17.60;99.90
33476;DHT22;19814;48.224;11.422;2023-07-13T04:30:51;17.50;99.90
33476;DHT22;19814;48.224;11.422;2023-07-13T04:33:17;17.60;99.90
33476;DHT22;19814;48.224;11.422;2023-07-13T04:35:43;17.60;99.90
33476;DHT22;19814;48.224;11.422;2023-07-13T04:38:12;17.70;99.90
33476;DHT22;19814;48.224;11.422;2023-07-13T04:40:37;17.70;99.90
33476;DHT22;19814;48.224;11.422;2023-07-13T04:43:03;17.80;99.90
33476;DHT22;19814;48.224;11.422;2023-07-13T04:45:29;17.80;99.90
33476;DHT22;19814;48.224;11.422;2023-07-13T04:47:56;17.80;99.90
33476;DHT22;19814;48.224;11.422;2023-07-13T04:50:21;17.80;99.90
33476;DHT22;19814;48.224;11.422;2023-07-13T04:52:49;17.80;99.90
33476;DHT22;19814;48.224;11.422;2023-07-13T04:55:15;17.80;99.90
33476;DHT22;19814;48.224;11.422;2023-07-13T04:57:41;17.80;99.90
33476;DHT22;19814;48.224;11.422;2023-07-13T05:00:07;17.90;99.90
33476;DHT22;19814;48.224;11.422;2023-07-13T05:02:33;17.90;99.90
33476;DHT22;19814;48.224;11.422;2023-07-13T05:04:59;18.00;99.90
33476;DHT22;19814;48.224;11.422;2023-07-13T05:07:26;18.00;99.90
33476;DHT22;19814;48.224;11.422;2023-07-13T05:09:52;18.10;99.90
33476;DHT22;19814;48.224;11.422;2023-07-13T05:12:17;18.10;99.90
33476;DHT22;19814;48.224;11.422;2023-07-13T05:14:43;18.10;99.90
33476;DHT22;19814;48.224;11.422;2023-07-13T05:17:09;18.20;99.90
33476;DHT22;19814;48.224;11.422;2023-07-13T05:19:35;18.10;99.90
33476;DHT22;19814;48.224;11.422;2023-07-13T05:22:00;18.10;99.90
33476;DHT22;19814;48.224;11.422;2023-07-13T05:24:26;18.10;99.90
33476;DHT22;19814;48.224;11.422;2023-07-13T05:26:52;18.20;99.90
33476;DHT22;19814;48.224;11.422;2023-07-13T05:29:19;18.20;99.90
33476;DHT22;19814;48.224;11.422;2023-07-13T05:31:44;18.20;99.90
33476;DHT22;19814;48.224;11.422;2023-07-13T05:34:10;18.20;99.90
33476;DHT22;19814;48.224;11.422;2023-07-13T05:36:35;18.20;99.90
33476;DHT22;19814;48.224;11.422;2023-07-13T05:39:03;18.20;99.90
33476;DHT22;19814;48.224;11.422;2023-07-13T05:41:29;18.30;99.90
33476;DHT22;19814;48.224;11.422;2023-07-13T05:43:54;18.20;99.90
33476;DHT22;19814;48.224;11.422;2023-07-13T05:46:20;18.30;99.90
33476;DHT22;19814;48.224;11.422;2023-07-13T05:48:45;18.40;99.90
33476;DHT22;19814;48.224;11.422;2023-07-13T05:51:11;18.50;99.90
33476;DHT22;19814;48.224;11.422;2023-07-13T05:53:36;18.60;99.90
33476;DHT22;19814;48.224;11.422;2023-07-13T05:56:02;18.70;99.90
33476;DHT22;19814;48.224;11.422;2023-07-13T05:58:27;18.70;99.90
33476;DHT22;19814;48.224;11.422;2023-07-13T06:01:07;18.70;99.90
33476;DHT22;19814;48.224;11.422;2023-07-13T06:03:33;18.70;99.90
33476;DHT22;19814;48.224;11.422;2023-07-13T06:05:59;18.70;99.90
33476;DHT22;19814;48.224;11.422;2023-07-13T06:08:28;18.80;99.90
33476;DHT22;19814;48.224;11.422;2023-07-13T06:10:53;18.80;99.90
33476;DHT22;19814;48.224;11.422;2023-07-13T06:13:19;19.00;99.90
33476;DHT22;19814;48.224;11.422;2023-07-13T06:15:50;19.20;99.90
33476;DHT22;19814;48.224;11.422;2023-07-13T06:18:16;19.40;99.90
33476;DHT22;19814;48.224;11.422;2023-07-13T06:20:42;19.50;99.90
33476;DHT22;19814;48.224;11.422;2023-07-13T06:23:07;19.60;99.90
33476;DHT22;19814;48.224;11.422;2023-07-13T06:25:33;19.70;99.90
33476;DHT22;19814;48.224;11.422;2023-07-13T06:27:59;19.70;99.90
33476;DHT22;19814;48.224;11.422;2023-07-13T06:30:24;19.50;99.90
33476;DHT22;19814;48.224;11.422;2023-07-13T06:32:50;19.50;99.90
33476;DHT22;19814;48.224;11.422;2023-07-13T06:35:15;19.60;99.90
33476;DHT22;19814;48.224;11.422;2023-07-13T06:37:41;19.50;99.90
33476;DHT22;19814;48.224;11.422;2023-07-13T06:40:07;19.40;99.90
33476;DHT22;19814;48.224;11.422;2023-07-13T06:42:33;19.20;99.90
33476;DHT22;19814;48.224;11.422;2023-07-13T06:44:58;19.00;99.90
33476;DHT22;19814;48.224;11.422;2023-07-13T06:47:24;19.00;99.90
33476;DHT22;19814;48.224;11.422;2023-07-13T06:49:49;18.80;99.90
33476;DHT22;19814;48.224;11.422;2023-07-13T06:52:15;18.80;99.90
33476;DHT22;19814;48.224;11.422;2023-07-13T06:54:40;18.80;99.90
33476;DHT22;19814;48.224;11.422;2023-07-13T06:57:06;18.90;99.90
33476;DHT22;19814;48.224;11.422;2023-07-13T06:59:31;18.90;99.90
33476;DHT22;19814;48.224;11.422;2023-07-13T07:01:57;18.90;99.90
33476;DHT22;19814;48.224;11.422;2023-07-13T07:04:22;18.90;99.90
33476;DHT22;19814;48.224;11.422;2023-07-13T07:06:48;19.00;99.90
33476;DHT22;19814;48.224;11.422;2023-07-13T07:09:13;19.10;99.90
33476;DHT22;19814;48.224;11.422;2023-07-13T07:11:39;19.10;99.90
33476;DHT22;19814;48.224;11.422;2023-07-13T07:14:05;19.10;99.90
33476;DHT22;19814;48.224;11.422;2023-07-13T07:16:31;19.00;99.90
33476;DHT22;19814;48.224;11.422;2023-07-13T07:18:56;19.00;99.90
33476;DHT22;19814;48.224;11.422;2023-07-13T07:21:22;19.00;99.90
33476;DHT22;19814;48.224;11.422;2023-07-13T07:23:51;19.00;99.90
33476;DHT22;19814;48.224;11.422;2023-07-13T07:26:17;19.00;99.90
33476;DHT22;19814;48.224;11.422;2023-07-13T07:28:43;19.00;99.90
33476;DHT22;19814;48.224;11.422;2023-07-13T07:31:09;18.90;99.90
33476;DHT22;19814;48.224;11.422;2023-07-13T07:33:34;18.90;99.90
33476;DHT22;19814;48.224;11.422;2023-07-13T07:36:00;18.90;99.90
33476;DHT22;19814;48.224;11.422;2023-07-13T07:38:26;18.90;99.90
33476;DHT22;19814;48.224;11.422;2023-07-13T07:40:52;18.90;99.90
33476;DHT22;19814;48.224;11.422;2023-07-13T07:43:18;18.90;99.90
33476;DHT22;19814;48.224;11.422;2023-07-13T07:45:45;18.80;99.90
33476;DHT22;19814;48.224;11.422;2023-07-13T07:48:10;18.80;99.90
33476;DHT22;19814;48.224;11.422;2023-07-13T07:50:36;18.60;99.90
33476;DHT22;19814;48.224;11.422;2023-07-13T07:53:02;18.60;99.90
33476;DHT22;19814;48.224;11.422;2023-07-13T07:55:28;18.60;99.90
33476;DHT22;19814;48.224;11.422;2023-07-13T07:57:55;18.60;99.90
33476;DHT22;19814;48.224;11.422;2023-07-13T08:00:21;18.60;99.90
33476;DHT22;19814;48.224;11.422;2023-07-13T08:02:47;18.70;99.90
33476;DHT22;19814;48.224;11.422;2023-07-13T08:05:13;18.70;99.90
33476;DHT22;19814;48.224;11.422;2023-07-13T08:07:39;18.50;99.90
33476;DHT22;19814;48.224;11.422;2023-07-13T08:10:06;18.50;99.90
33476;DHT22;19814;48.224;11.422;2023-07-13T08:12:36;18.40;99.90
33476;DHT22;19814;48.224;11.422;2023-07-13T08:15:02;18.40;99.90
33476;DHT22;19814;48.224;11.422;2023-07-13T08:17:28;18.40;99.90
33476;DHT22;19814;48.224;11.422;2023-07-13T08:19:53;18.40;99.90
33476;DHT22;19814;48.224;11.422;2023-07-13T08:22:19;18.50;99.90
33476;DHT22;19814;48.224;11.422;2023-07-13T08:24:44;18.50;99.90
33476;DHT22;19814;48.224;11.422;2023-07-13T08:27:11;18.60;99.90
33476;DHT22;19814;48.224;11.422;2023-07-13T08:29:37;18.50;99.90
33476;DHT22;19814;48.224;11.422;2023-07-13T08:32:04;18.60;99.90
33476;DHT22;19814;48.224;11.422;2023-07-13T08:34:30;18.70;99.90
33476;DHT22;19814;48.224;11.422;2023-07-13T08:36:55;18.90;99.90
33476;DHT22;19814;48.224;11.422;2023-07-13T08:39:20;19.00;99.90
33476;DHT22;19814;48.224;11.422;2023-07-13T08:41:49;19.10;99.90
33476;DHT22;19814;48.224;11.422;2023-07-13T08:44:30;19.10;99.90
33476;DHT22;19814;48.224;11.422;2023-07-13T08:46:58;19.00;99.90
33476;DHT22;19814;48.224;11.422;2023-07-13T08:49:25;19.00;99.90
33476;DHT22;19814;48.224;11.422;2023-07-13T08:52:02;18.90;99.90
33476;DHT22;19814;48.224;11.422;2023-07-13T08:54:37;18.90;99.90
33476;DHT22;19814;48.224;11.422;2023-07-13T08:57:15;19.00;99.90
33476;DHT22;19814;48.224;11.422;2023-07-13T08:59:42;18.90;99.90
33476;DHT22;19814;48.224;11.422;2023-07-13T09:04:59;19.10;99.90
33476;DHT22;19814;48.224;11.422;2023-07-13T09:10:15;19.30;99.90
33476;DHT22;19814;48.224;11.422;2023-07-13T09:15:32;19.60;99.90
33476;DHT22;19814;48.224;11.422;2023-07-13T09:18:10;19.80;99.90
33476;DHT22;19814;48.224;11.422;2023-07-13T09:20:51;19.90;99.90
33476;DHT22;19814;48.224;11.422;2023-07-13T09:23:21;20.10;99.90
33476;DHT22;19814;48.224;11.422;2023-07-13T09:25:49;20.30;99.90
33476;DHT22;19814;48.224;11.422;2023-07-13T09:28:27;20.50;99.90
33476;DHT22;19814;48.224;11.422;2023-07-13T09:30:58;20.60;99.90
33476;DHT22;19814;48.224;11.422;2023-07-13T09:33:26;20.50;99.90
33476;DHT22;19814;48.224;11.422;2023-07-13T09:35:55;20.40;99.90
33476;DHT22;19814;48.224;11.422;2023-07-13T09:38:25;20.40;99.90
33476;DHT22;19814;48.224;11.422;2023-07-13T09:44:10;20.60;99.90
33476;DHT22;19814;48.224;11.422;2023-07-13T09:46:38;20.80;99.90
33476;DHT22;19814;48.224;11.422;2023-07-13T09:49:04;20.90;99.90
33476;DHT22;19814;48.224;11.422;2023-07-13T09:51:29;20.70;99.90
33476;DHT22;19814;48.224;11.422;2023-07-13T09:53:55;20.80;99.70
33476;DHT22;19814;48.224;11.422;2023-07-13T09:56:29;20.80;99.90
33476;DHT22;19814;48.224;11.422;2023-07-13T09:58:56;20.60;98.20
33476;DHT22;19814;48.224;11.422;2023-07-13T10:01:52;20.50;99.20
33476;DHT22;19814;48.224;11.422;2023-07-13T10:04:20;20.90;99.90
33476;DHT22;19814;48.224;11.422;2023-07-13T10:06:46;21.20;99.90
33476;DHT22;19814;48.224;11.422;2023-07-13T10:09:17;21.70;99.40
33476;DHT22;19814;48.224;11.422;2023-07-13T10:11:44;21.90;97.60
33476;DHT22;19814;48.224;11.422;2023-07-13T10:14:18;22.10;97.40
33476;DHT22;19814;48.224;11.422;2023-07-13T10:16:46;22.50;97.00
33476;DHT22;19814;48.224;11.422;2023-07-13T10:19:19;22.70;97.40
33476;DHT22;19814;48.224;11.422;2023-07-13T10:21:58;22.60;98.10
33476;DHT22;19814;48.224;11.422;2023-07-13T10:24:34;22.50;98.50
33476;DHT22;19814;48.224;11.422;2023-07-13T10:27:12;22.10;96.50
33476;DHT22;19814;48.224;11.422;2023-07-13T10:29:46;21.60;96.40
33476;DHT22;19814;48.224;11.422;2023-07-13T10:32:13;21.50;96.20
33476;DHT22;19814;48.224;11.422;2023-07-13T10:34:41;21.50;96.60
33476;DHT22;19814;48.224;11.422;2023-07-13T10:37:20;21.70;99.50
33476;DHT22;19814;48.224;11.422;2023-07-13T10:39:48;22.20;99.30
33476;DHT22;19814;48.224;11.422;2023-07-13T10:44:51;23.10;96.10
33476;DHT22;19814;48.224;11.422;2023-07-13T10:47:17;23.10;96.40
33476;DHT22;19814;48.224;11.422;2023-07-13T10:49:47;22.80;95.70
33476;DHT22;19814;48.224;11.422;2023-07-13T10:53:17;22.80;95.00
33476;DHT22;19814;48.224;11.422;2023-07-13T10:55:33;22.80;94.00
33476;DHT22;19814;48.224;11.422;2023-07-13T11:03:32;23.70;95.70
33476;DHT22;19814;48.224;11.422;2023-07-13T11:06:09;23.90;94.00
33476;DHT22;19814;48.224;11.422;2023-07-13T11:08:53;24.00;94.50
33476;DHT22;19814;48.224;11.422;2023-07-13T11:11:32;24.20;94.00
33476;DHT22;19814;48.224;11.422;2023-07-13T11:14:00;24.30;93.90
33476;DHT22;19814;48.224;11.422;2023-07-13T11:16:42;24.40;93.30
33476;DHT22;19814;48.224;11.422;2023-07-13T11:19:23;24.30;92.30
33476;DHT22;19814;48.224;11.422;2023-07-13T11:24:49;24.30;93.00
33476;DHT22;19814;48.224;11.422;2023-07-13T11:27:42;24.70;92.20
33476;DHT22;19814;48.224;11.422;2023-07-13T11:33:27;25.10;90.80
33476;DHT22;19814;48.224;11.422;2023-07-13T11:36:18;25.30;90.80
33476;DHT22;19814;48.224;11.422;2023-07-13T11:38:57;25.50;91.00
33476;DHT22;19814;48.224;11.422;2023-07-13T11:41:30;25.60;84.60
33476;DHT22;19814;48.224;11.422;2023-07-13T11:44:27;25.40;88.50
33476;DHT22;19814;48.224;11.422;2023-07-13T11:46:58;25.90;89.20
33476;DHT22;19814;48.224;11.422;2023-07-13T11:49:28;26.10;89.20
33476;DHT22;19814;48.224;11.422;2023-07-13T11:51:55;25.90;82.00
33476;DHT22;19814;48.224;11.422;2023-07-13T11:54:25;25.80;82.30
33476;DHT22;19814;48.224;11.422;2023-07-13T11:59:50;26.50;89.00
33476;DHT22;19814;48.224;11.422;2023-07-13T12:04:49;26.60;81.00
33476;DHT22;19814;48.224;11.422;2023-07-13T12:07:18;26.50;76.80
33476;DHT22;19814;48.224;11.422;2023-07-13T12:09:44;25.80;76.90
33476;DHT22;19814;48.224;11.422;2023-07-13T12:12:12;25.30;79.90
33476;DHT22;19814;48.224;11.422;2023-07-13T12:14:38;25.30;81.70
33476;DHT22;19814;48.224;11.422;2023-07-13T12:17:20;25.00;77.60
33476;DHT22;19814;48.224;11.422;2023-07-13T12:19:47;24.60;81.60
33476;DHT22;19814;48.224;11.422;2023-07-13T12:22:14;24.70;79.30
33476;DHT22;19814;48.224;11.422;2023-07-13T12:24:41;24.60;81.80
33476;DHT22;19814;48.224;11.422;2023-07-13T12:27:23;24.70;82.90
33476;DHT22;19814;48.224;11.422;2023-07-13T12:30:31;24.40;79.10
33476;DHT22;19814;48.224;11.422;2023-07-13T12:33:10;24.40;82.30
33476;DHT22;19814;48.224;11.422;2023-07-13T12:35:42;24.60;84.90
33476;DHT22;19814;48.224;11.422;2023-07-13T12:38:10;24.70;82.40
33476;DHT22;19814;48.224;11.422;2023-07-13T12:40:37;24.80;82.20
33476;DHT22;19814;48.224;11.422;2023-07-13T12:43:04;24.70;79.70
33476;DHT22;19814;48.224;11.422;2023-07-13T12:45:32;24.30;80.00
33476;DHT22;19814;48.224;11.422;2023-07-13T12:48:11;24.30;80.50
33476;DHT22;19814;48.224;11.422;2023-07-13T12:50:46;24.20;82.80
33476;DHT22;19814;48.224;11.422;2023-07-13T12:53:19;24.60;83.60
33476;DHT22;19814;48.224;11.422;2023-07-13T12:55:52;24.90;81.80
33476;DHT22;19814;48.224;11.422;2023-07-13T12:58:25;25.10;82.30
33476;DHT22;19814;48.224;11.422;2023-07-13T13:00:58;24.80;79.40
33476;DHT22;19814;48.224;11.422;2023-07-13T13:03:31;24.80;78.60
33476;DHT22;19814;48.224;11.422;2023-07-13T13:06:04;24.90;77.00
33476;DHT22;19814;48.224;11.422;2023-07-13T13:08:32;25.00;79.00
33476;DHT22;19814;48.224;11.422;2023-07-13T13:10:58;25.20;79.50
33476;DHT22;19814;48.224;11.422;2023-07-13T13:13:23;25.40;81.30
33476;DHT22;19814;48.224;11.422;2023-07-13T13:15:50;25.50;80.50
33476;DHT22;19814;48.224;11.422;2023-07-13T13:18:23;25.60;76.80
33476;DHT22;19814;48.224;11.422;2023-07-13T13:20:50;25.40;77.80
33476;DHT22;19814;48.224;11.422;2023-07-13T13:23:18;25.30;78.70
33476;DHT22;19814;48.224;11.422;2023-07-13T13:25:46;25.20;76.30
33476;DHT22;19814;48.224;11.422;2023-07-13T13:28:15;25.10;76.10
33476;DHT22;19814;48.224;11.422;2023-07-13T13:30:42;25.00;77.50
33476;DHT22;19814;48.224;11.422;2023-07-13T13:33:14;25.00;78.20
33476;DHT22;19814;48.224;11.422;2023-07-13T13:35:40;25.10;80.70
33476;DHT22;19814;48.224;11.422;2023-07-13T13:38:17;25.30;82.40
33476;DHT22;19814;48.224;11.422;2023-07-13T13:40:44;25.20;77.60
33476;DHT22;19814;48.224;11.422;2023-07-13T13:45:45;24.80;75.90
33476;DHT22;19814;48.224;11.422;2023-07-13T13:48:17;24.70;77.90
33476;DHT22;19814;48.224;11.422;2023-07-13T13:50:43;24.80;81.90
33476;DHT22;19814;48.224;11.422;2023-07-13T13:53:11;24.80;80.00
33476;DHT22;19814;48.224;11.422;2023-07-13T13:55:39;25.10;82.90
33476;DHT22;19814;48.224;11.422;2023-07-13T13:58:07;25.40;80.60
33476;DHT22;19814;48.224;11.422;2023-07-13T14:00:33;25.30;77.60
33476;DHT22;19814;48.224;11.422;2023-07-13T14:02:59;25.30;78.10
33476;DHT22;19814;48.224;11.422;2023-07-13T14:05:26;25.40;79.20
33476;DHT22;19814;48.224;11.422;2023-07-13T14:07:52;25.40;76.00
33476;DHT22;19814;48.224;11.422;2023-07-13T14:10:19;25.30;79.00
33476;DHT22;19814;48.224;11.422;2023-07-13T14:12:47;25.40;80.00
33476;DHT22;19814;48.224;11.422;2023-07-13T14:15:25;25.50;76.00
33476;DHT22;19814;48.224;11.422;2023-07-13T14:17:52;25.40;73.90
33476;DHT22;19814;48.224;11.422;2023-07-13T14:20:19;25.30;78.90
33476;DHT22;19814;48.224;11.422;2023-07-13T14:22:45;25.20;74.00
33476;DHT22;19814;48.224;11.422;2023-07-13T14:25:12;24.80;80.20
33476;DHT22;19814;48.224;11.422;2023-07-13T14:27:38;24.80;82.00
33476;DHT22;19814;48.224;11.422;2023-07-13T14:30:21;24.90;81.80
33476;DHT22;19814;48.224;11.422;2023-07-13T14:32:47;24.90;77.00
33476;DHT22;19814;48.224;11.422;2023-07-13T14:35:15;24.80;79.80
33476;DHT22;19814;48.224;11.422;2023-07-13T14:37:42;24.60;79.60
33476;DHT22;19814;48.224;11.422;2023-07-13T14:40:16;24.40;81.20
33476;DHT22;19814;48.224;11.422;2023-07-13T14:42:42;24.30;78.40
33476;DHT22;19814;48.224;11.422;2023-07-13T14:45:17;24.30;79.10
33476;DHT22;19814;48.224;11.422;2023-07-13T14:47:43;24.40;79.90
33476;DHT22;19814;48.224;11.422;2023-07-13T14:50:18;24.50;81.50
33476;DHT22;19814;48.224;11.422;2023-07-13T14:52:45;24.60;83.00
33476;DHT22;19814;48.224;11.422;2023-07-13T14:55:12;24.70;80.50
33476;DHT22;19814;48.224;11.422;2023-07-13T14:57:39;24.80;79.80
33476;DHT22;19814;48.224;11.422;2023-07-13T15:00:19;24.70;79.70
33476;DHT22;19814;48.224;11.422;2023-07-13T15:02:51;24.80;80.60
33476;DHT22;19814;48.224;11.422;2023-07-13T15:05:22;24.70;80.00
33476;DHT22;19814;48.224;11.422;2023-07-13T15:07:50;24.60;80.40
33476;DHT22;19814;48.224;11.422;2023-07-13T15:10:23;24.60;81.10
33476;DHT22;19814;48.224;11.422;2023-07-13T15:12:52;24.60;80.00
33476;DHT22;19814;48.224;11.422;2023-07-13T15:15:18;24.50;81.70
33476;DHT22;19814;48.224;11.422;2023-07-13T15:17:45;24.40;82.00
33476;DHT22;19814;48.224;11.422;2023-07-13T15:22:44;24.40;82.10
33476;DHT22;19814;48.224;11.422;2023-07-13T15:25:19;24.40;81.70
33476;DHT22;19814;48.224;11.422;2023-07-13T15:27:46;24.30;77.90
33476;DHT22;19814;48.224;11.422;2023-07-13T15:30:12;24.30;81.20
33476;DHT22;19814;48.224;11.422;2023-07-13T15:32:38;24.30;81.70
33476;DHT22;19814;48.224;11.422;2023-07-13T15:35:05;24.40;79.80
33476;DHT22;19814;48.224;11.422;2023-07-13T15:37:34;24.40;79.00
33476;DHT22;19814;48.224;11.422;2023-07-13T15:40:00;24.40;79.90
33476;DHT22;19814;48.224;11.422;2023-07-13T15:42:26;24.40;80.70
33476;DHT22;19814;48.224;11.422;2023-07-13T15:44:56;24.40;80.00
33476;DHT22;19814;48.224;11.422;2023-07-13T15:47:21;24.50;79.80
33476;DHT22;19814;48.224;11.422;2023-07-13T15:49:47;24.50;79.60
33476;DHT22;19814;48.224;11.422;2023-07-13T15:52:21;24.50;81.00
33476;DHT22;19814;48.224;11.422;2023-07-13T15:54:47;24.40;79.40
33476;DHT22;19814;48.224;11.422;2023-07-13T15:57:13;24.40;80.30
33476;DHT22;19814;48.224;11.422;2023-07-13T15:59:40;24.30;79.00
33476;DHT22;19814;48.224;11.422;2023-07-13T16:02:22;24.20;80.90